Time;durP1;ratioP1;P1;durP2;ratioP2;P2;SDS_P1;SDS_P2;PMS_P1;PMS_P2;Temp;Humidity;BMP_temperature;BMP_pressure;BME280_temperature;BME280_humidity;BME280_pressure;Samples;Min_cycle;Max_cycle;Signal;HPM_P1;HPM_P2
2022/03/02 00:02:06;;;;;;;11.40;4.70;;;2.20;39.20;;;;;;5049145;28;20444;-78
2022/03/02 00:04:31;;;;;;;9.95;4.72;;;2.10;39.30;;;;;;5049243;28;20051;-78
2022/03/02 00:06:57;;;;;;;;;;;2.20;38.90;;;;;;5049697;28;20049;-78
2022/03/02 00:09:22;;;;;;;12.10;5.00;;;2.20;38.80;;;;;;5050241;28;19909;-78
2022/03/02 00:11:48;;;;;;;11.82;3.90;;;2.10;38.90;;;;;;5049537;28;20033;-78
2022/03/02 00:14:14;;;;;;;;;;;2.10;39.20;;;;;;5051881;28;20403;-78
2022/03/02 00:16:40;;;;;;;14.77;4.85;;;2.00;39.20;;;;;;5049625;28;19908;-78
2022/03/02 00:19:08;;;;;;;13.15;5.70;;;2.10;39.60;;;;;;5052295;28;20511;-77
2022/03/02 00:21:35;;;;;;;13.30;5.85;;;2.00;40.00;;;;;;5049040;28;20033;-78
2022/03/02 00:24:03;;;;;;;14.93;6.15;;;1.80;40.20;;;;;;5048353;28;20051;-77
2022/03/02 00:26:30;;;;;;;16.20;6.18;;;1.80;40.10;;;;;;5048736;28;20068;-77
2022/03/02 00:28:56;;;;;;;12.65;5.60;;;1.80;40.30;;;;;;5048605;28;20520;-77
2022/03/02 00:31:22;;;;;;;16.77;6.45;;;1.80;40.60;;;;;;5050416;28;20057;-77
2022/03/02 00:33:47;;;;;;;;;;;1.70;40.50;;;;;;5051351;28;20089;-78
2022/03/02 00:36:13;;;;;;;15.55;5.60;;;1.70;40.60;;;;;;5051037;28;20404;-77
2022/03/02 00:38:38;;;;;;;9.75;4.95;;;1.70;40.70;;;;;;5049129;28;20063;-77
2022/03/02 00:41:05;;;;;;;15.98;6.70;;;1.70;40.80;;;;;;5050088;28;20576;-77
2022/03/02 00:43:30;;;;;;;;;;;1.70;41.40;;;;;;5049835;28;20036;-77
2022/03/02 00:45:56;;;;;;;15.07;6.97;;;1.70;40.80;;;;;;5050024;28;19913;-77
2022/03/02 00:48:22;;;;;;;14.75;6.65;;;1.60;41.00;;;;;;5050343;28;20033;-78
2022/03/02 00:50:48;;;;;;;;;;;1.60;41.30;;;;;;5051731;28;20036;-77
2022/03/02 00:53:14;;;;;;;15.52;6.93;;;1.60;41.00;;;;;;5054825;28;19916;-78
2022/03/02 00:55:39;;;;;;;;;;;1.70;41.30;;;;;;5055197;28;20032;-77
2022/03/02 00:58:06;;;;;;;22.45;10.60;;;1.70;41.40;;;;;;5047020;28;20011;-79
2022/03/02 01:00:32;;;;;;;16.88;6.93;;;1.70;41.60;;;;;;5055603;28;20478;-79
2022/03/02 01:02:58;;;;;;;16.98;7.47;;;1.70;41.80;;;;;;5058927;28;20025;-80
2022/03/02 01:05:23;;;;;;;17.77;6.20;;;1.60;41.50;;;;;;5056385;28;20127;-80
2022/03/02 01:07:50;;;;;;;22.73;7.53;;;1.60;40.80;;;;;;5055640;28;20104;-79
2022/03/02 01:10:17;;;;;;;18.65;6.43;;;1.60;40.80;;;;;;5058481;28;20057;-80
2022/03/02 01:12:42;;;;;;;16.10;7.03;;;1.40;40.90;;;;;;5057494;28;20044;-79
2022/03/02 01:15:09;;;;;;;15.93;6.18;;;1.40;41.10;;;;;;5054818;28;20025;-80
2022/03/02 01:17:35;;;;;;;19.05;7.13;;;1.30;41.60;;;;;;5054524;28;20497;-79
2022/03/02 01:20:01;;;;;;;21.60;8.05;;;1.30;42.30;;;;;;5054571;28;20036;-79
2022/03/02 01:22:27;;;;;;;15.70;5.72;;;1.30;42.60;;;;;;5052979;28;20029;-79
2022/03/02 01:24:55;;;;;;;21.58;8.68;;;1.40;43.30;;;;;;5053236;28;20086;-80
2022/03/02 01:27:21;;;;;;;15.00;5.80;;;1.40;42.90;;;;;;5053578;28;20500;-79
2022/03/02 01:29:46;;;;;;;;;;;1.40;43.10;;;;;;5055367;28;20059;-79
2022/03/02 01:32:12;;;;;;;19.40;8.43;;;1.40;43.40;;;;;;5054129;28;19917;-79
2022/03/02 01:34:38;;;;;;;25.38;11.70;;;1.30;42.80;;;;;;5053993;28;20081;-79
2022/03/02 01:37:04;;;;;;;29.00;14.80;;;1.20;42.90;;;;;;5055516;28;20037;-79
2022/03/02 01:39:30;;;;;;;;;;;1.20;42.80;;;;;;5054557;28;20033;-79
2022/03/02 01:41:56;;;;;;;21.58;9.18;;;1.30;42.60;;;;;;5054240;28;19950;-79
2022/03/02 01:44:25;;;;;;;;;;;1.10;42.80;;;;;;5052628;28;20425;-78
2022/03/02 01:46:51;;;;;;;20.00;8.98;;;1.10;43.00;;;;;;5053528;28;19911;-79
2022/03/02 01:49:16;;;;;;;;;;;1.10;44.20;;;;;;5055843;28;20041;-79
2022/03/02 01:51:42;;;;;;;12.35;5.15;;;1.10;44.50;;;;;;5057572;28;19915;-79
2022/03/02 01:54:07;;;;;;;;;;;1.00;44.90;;;;;;5058174;28;20072;-80
2022/03/02 01:56:34;;;;;;;11.85;4.88;;;0.90;45.00;;;;;;5058385;28;20246;-79
2022/03/02 01:59:00;;;;;;;12.18;5.10;;;0.90;44.70;;;;;;5057385;28;20032;-80
2022/03/02 02:01:27;;;;;;;12.13;4.90;;;0.90;45.60;;;;;;5057796;28;20029;-79
2022/03/02 02:03:53;;;;;;;16.95;5.75;;;0.90;45.80;;;;;;5059380;28;20100;-80
2022/03/02 02:06:18;;;;;;;;;;;0.90;46.10;;;;;;5060014;28;20060;-80
2022/03/02 02:08:44;;;;;;;14.63;5.78;;;0.80;46.50;;;;;;5060600;28;19911;-80
2022/03/02 02:11:11;;;;;;;;;;;0.80;46.90;;;;;;5058885;28;20486;-79
2022/03/02 02:13:37;;;;;;;15.90;6.38;;;0.60;47.40;;;;;;5058045;28;19916;-79
2022/03/02 02:16:04;;;;;;;;;;;0.70;48.10;;;;;;5060983;28;20048;-80
2022/03/02 02:18:30;;;;;;;13.25;3.90;;;0.50;48.10;;;;;;5058721;28;20389;-80
2022/03/02 02:21:09;;;;;;;8.75;3.53;;;0.50;47.90;;;;;;5058187;28;20021;-79
2022/03/02 02:23:38;;;;;;;10.15;3.95;;;0.40;48.30;;;;;;5058383;28;20036;-80
2022/03/02 02:26:05;;;;;;;9.70;4.00;;;0.30;48.00;;;;;;5050009;28;20029;-77
2022/03/02 02:28:32;;;;;;;10.68;4.40;;;0.30;48.10;;;;;;5050288;28;20871;-77
2022/03/02 02:30:59;;;;;;;15.68;4.75;;;0.30;48.40;;;;;;5048661;28;20045;-78
2022/03/02 02:33:26;;;;;;;9.63;3.35;;;0.20;48.50;;;;;;5049634;28;20522;-78
2022/03/02 02:35:52;;;;;;;12.25;4.38;;;0.20;48.90;;;;;;5049118;28;20017;-78
2022/03/02 02:38:18;;;;;;;;;;;0.30;49.70;;;;;;5050267;28;20140;-78
2022/03/02 02:40:44;;;;;;;10.30;3.60;;;0.30;49.80;;;;;;5051207;28;19916;-78
2022/03/02 02:43:10;;;;;;;;;;;0.30;49.50;;;;;;5050313;28;20021;-78
2022/03/02 02:45:36;;;;;;;11.43;4.50;;;0.40;49.70;;;;;;5049451;28;19908;-78
2022/03/02 02:48:02;;;;;;;;;;;0.40;50.20;;;;;;5051651;28;20147;-78
2022/03/02 02:50:30;;;;;;;13.45;3.85;;;0.50;50.70;;;;;;5049379;28;19909;-78
2022/03/02 02:52:58;;;;;;;12.45;4.68;;;0.50;50.90;;;;;;5051064;28;20053;-78
2022/03/02 02:55:26;;;;;;;17.98;7.28;;;0.50;51.20;;;;;;5050919;28;20032;-78
2022/03/02 02:57:53;;;;;;;16.25;7.75;;;0.50;51.20;;;;;;5049105;28;20039;-78
2022/03/02 03:00:21;;;;;;;10.63;4.63;;;0.50;51.40;;;;;;5050469;28;20443;-78
2022/03/02 03:02:50;;;;;;;10.65;3.78;;;0.50;51.00;;;;;;5049820;28;20036;-77
2022/03/02 03:05:18;;;;;;;9.23;4.30;;;0.50;50.80;;;;;;5050398;28;20079;-78
2022/03/02 03:07:46;;;;;;;12.48;3.78;;;0.50;50.60;;;;;;5048833;28;20032;-79
2022/03/02 03:10:13;;;;;;;14.20;4.53;;;0.50;50.50;;;;;;5048812;28;20047;-78
2022/03/02 03:12:39;;;;;;;12.90;4.70;;;0.50;50.60;;;;;;5049189;28;20041;-77
2022/03/02 03:15:09;;;;;;;13.77;5.15;;;0.60;50.70;;;;;;5049017;28;20036;-78
2022/03/02 03:17:35;;;;;;;10.98;4.57;;;0.60;50.90;;;;;;5049376;28;20410;-77
2022/03/02 03:20:00;;;;;;;;;;;0.60;51.00;;;;;;5050070;28;20029;-78
2022/03/02 03:22:26;;;;;;;10.98;5.15;;;0.70;51.60;;;;;;5049375;28;19985;-77
2022/03/02 03:24:52;;;;;;;;;;;0.70;51.10;;;;;;5051251;28;20035;-77
2022/03/02 03:27:18;;;;;;;13.70;5.50;;;0.80;50.90;;;;;;5052218;28;20292;-78
2022/03/02 03:29:43;;;;;;;14.32;4.88;;;0.90;50.40;;;;;;5053239;28;20037;-78
2022/03/02 03:32:09;;;;;;;;;;;1.00;49.70;;;;;;5048542;28;20033;-78
2022/03/02 03:34:35;;;;;;;11.73;5.05;;;1.20;49.30;;;;;;5049519;28;19904;-77
2022/03/02 03:37:00;;;;;;;;;;;1.20;49.40;;;;;;5046426;28;20025;-77
2022/03/02 03:39:26;;;;;;;15.02;7.28;;;1.20;49.30;;;;;;5046469;28;20294;-77
2022/03/02 03:41:52;;;;;;;;;;;1.20;48.80;;;;;;5046620;28;20911;-77
2022/03/02 03:44:18;;;;;;;16.30;6.65;;;1.20;49.10;;;;;;5046600;28;20334;-77
2022/03/02 03:46:43;;;;;;;;;;;1.20;49.60;;;;;;5047916;28;20040;-77
2022/03/02 03:49:09;;;;;;;13.10;5.95;;;1.20;50.30;;;;;;5047492;28;20392;-77
2022/03/02 03:51:35;;;;;;;13.80;6.13;;;1.30;51.00;;;;;;5047454;28;20033;-77
2022/03/02 03:54:01;;;;;;;23.13;11.20;;;1.30;50.90;;;;;;5047872;28;20029;-77
2022/03/02 03:56:28;;;;;;;;;;;1.20;50.60;;;;;;5048135;28;20025;-77
2022/03/02 03:58:54;;;;;;;15.18;6.50;;;1.30;50.20;;;;;;5046395;28;19958;-78
2022/03/02 04:01:21;;;;;;;17.05;7.65;;;1.30;50.50;;;;;;5046522;28;20032;-77
2022/03/02 04:03:47;;;;;;;14.48;6.80;;;1.30;50.90;;;;;;5046056;28;20124;-76
2022/03/02 04:06:13;;;;;;;12.90;5.68;;;1.30;50.90;;;;;;5047799;28;20100;-77
2022/03/02 04:08:39;;;;;;;13.02;5.55;;;1.30;50.70;;;;;;5045662;28;20171;-77
2022/03/02 04:11:04;;;;;;;;;;;1.30;50.80;;;;;;5046996;28;20509;-78
2022/03/02 04:13:30;;;;;;;14.45;6.85;;;1.20;50.10;;;;;;5046814;28;20471;-78
2022/03/02 04:15:56;;;;;;;14.90;6.93;;;1.30;50.70;;;;;;5046228;28;20027;-77
2022/03/02 04:18:21;;;;;;;13.20;5.78;;;1.30;50.50;;;;;;5046065;28;20067;-77
2022/03/02 04:20:47;;;;;;;;;;;1.30;50.50;;;;;;5046750;28;20024;-77
2022/03/02 04:23:13;;;;;;;12.85;6.40;;;1.30;51.20;;;;;;5047092;28;19931;-77
2022/03/02 04:25:38;;;;;;;;;;;1.30;51.90;;;;;;5048843;28;20051;-78
2022/03/02 04:28:05;;;;;;;16.75;7.28;;;1.30;51.90;;;;;;5047832;28;19916;-78
2022/03/02 04:30:31;;;;;;;14.18;6.70;;;1.30;52.10;;;;;;5047894;28;20134;-79
2022/03/02 04:32:59;;;;;;;;;;;1.30;52.10;;;;;;5049965;28;20085;-78
2022/03/02 04:35:25;;;;;;;18.60;7.80;;;1.30;52.40;;;;;;5048806;28;19913;-78
2022/03/02 04:37:53;;;;;;;19.83;8.52;;;1.30;52.90;;;;;;5052275;28;20371;-78
2022/03/02 04:40:19;;;;;;;19.05;8.68;;;1.30;53.90;;;;;;5052787;28;20059;-78
2022/03/02 04:42:44;;;;;;;;;;;1.40;53.20;;;;;;5051955;28;20029;-78
2022/03/02 04:45:12;;;;;;;17.67;7.43;;;1.50;52.70;;;;;;5050831;28;20396;-78
2022/03/02 04:47:38;;;;;;;17.23;7.10;;;1.60;52.20;;;;;;5051085;28;20410;-77
2022/03/02 04:50:06;;;;;;;16.30;6.53;;;1.60;52.20;;;;;;5050550;28;20517;-77
2022/03/02 04:52:32;;;;;;;15.52;5.95;;;1.60;51.70;;;;;;5051280;28;20535;-78
2022/03/02 04:55:06;;;;;;;;;;;1.60;51.20;;;;;;5053432;28;20401;-79
2022/03/02 04:57:37;;;;;;;19.60;5.35;;;1.60;51.00;;;;;;5053168;28;19932;-79
2022/03/02 05:00:06;;;;;;;10.85;5.00;;;1.70;50.80;;;;;;5052995;28;20025;-77
2022/03/02 05:02:32;;;;;;;11.13;5.25;;;1.80;50.90;;;;;;5051032;28;20025;-77
2022/03/02 05:04:58;;;;;;;;;;;1.80;51.50;;;;;;5049654;28;20036;-77
2022/03/02 05:07:23;;;;;;;16.80;6.80;;;1.80;51.60;;;;;;5051706;28;19912;-76
2022/03/02 05:09:49;;;;;;;15.07;6.13;;;1.80;51.90;;;;;;5049872;28;20024;-77
2022/03/02 05:12:15;;;;;;;15.45;6.13;;;1.90;51.90;;;;;;5051104;28;20158;-78
2022/03/02 05:14:40;;;;;;;15.40;5.15;;;1.80;52.30;;;;;;5050112;28;20029;-77
2022/03/02 05:17:06;;;;;;;11.73;3.97;;;1.80;53.10;;;;;;5050483;28;20040;-78
2022/03/02 05:19:33;;;;;;;11.57;5.15;;;1.80;53.20;;;;;;5052394;28;20494;-78
2022/03/02 05:21:59;;;;;;;11.55;5.13;;;1.80;52.70;;;;;;5051997;28;20111;-77
2022/03/02 05:24:25;;;;;;;10.55;4.82;;;1.80;53.20;;;;;;5049214;28;20163;-76
2022/03/02 05:26:50;;;;;;;10.10;4.68;;;1.80;53.60;;;;;;5049590;28;20032;-76
2022/03/02 05:29:16;;;;;;;11.20;4.72;;;1.70;53.80;;;;;;5049097;28;20501;-78
2022/03/02 05:31:41;;;;;;;;;;;1.80;54.40;;;;;;5051676;28;20047;-78
2022/03/02 05:34:07;;;;;;;13.20;5.15;;;1.80;53.90;;;;;;5050402;28;19904;-76
2022/03/02 05:36:33;;;;;;;20.92;4.60;;;1.90;53.00;;;;;;5050291;28;20025;-76
2022/03/02 05:38:59;;;;;;;11.32;4.22;;;1.80;53.00;;;;;;5050890;28;20127;-77
2022/03/02 05:41:24;;;;;;;;;;;1.90;52.90;;;;;;5054221;28;20052;-78
2022/03/02 05:43:50;;;;;;;11.05;4.68;;;2.00;52.80;;;;;;5053369;28;19955;-78
2022/03/02 05:46:15;;;;;;;;;;;2.00;52.90;;;;;;5053215;28;20021;-78
2022/03/02 05:48:41;;;;;;;11.93;3.97;;;2.10;52.70;;;;;;5051316;28;20336;-77
2022/03/02 05:51:07;;;;;;;18.63;4.55;;;2.20;53.10;;;;;;5052285;28;20058;-77
2022/03/02 05:53:32;;;;;;;;;;;2.20;52.20;;;;;;5054676;28;20036;-78
2022/03/02 05:55:58;;;;;;;11.30;4.47;;;2.20;51.80;;;;;;5053070;28;19955;-78
2022/03/02 05:58:25;;;;;;;14.38;4.95;;;2.20;51.60;;;;;;5053240;28;20056;-76
2022/03/02 06:00:51;;;;;;;14.07;5.50;;;2.20;51.50;;;;;;5054796;28;20035;-78
2022/03/02 06:03:17;;;;;;;;;;;2.30;51.20;;;;;;5058544;28;20066;-78
2022/03/02 06:05:43;;;;;;;10.65;3.95;;;2.50;50.80;;;;;;5055582;28;20441;-78
2022/03/02 06:08:10;;;;;;;13.95;5.38;;;2.50;50.70;;;;;;5053601;28;20115;-79
2022/03/02 06:10:36;;;;;;;13.15;5.80;;;2.40;50.80;;;;;;5051953;28;20041;-77
2022/03/02 06:13:02;;;;;;;13.05;5.07;;;2.30;51.10;;;;;;5049795;28;20096;-78
2022/03/02 06:15:30;;;;;;;11.60;4.90;;;2.30;51.10;;;;;;5052465;28;20053;-78
2022/03/02 06:17:56;;;;;;;12.95;4.45;;;2.60;51.20;;;;;;5051225;28;20057;-78
2022/03/02 06:20:22;;;;;;;11.73;4.45;;;2.60;50.60;;;;;;5051523;28;20029;-79
2022/03/02 06:22:49;;;;;;;10.50;5.00;;;2.80;50.10;;;;;;5051717;28;20040;-77
2022/03/02 06:25:15;;;;;;;14.75;6.10;;;3.10;49.70;;;;;;5053651;28;20044;-78
2022/03/02 06:27:40;;;;;;;;;;;3.40;48.90;;;;;;5050668;28;20017;-78
2022/03/02 06:30:07;;;;;;;13.20;6.13;;;3.80;47.80;;;;;;5049047;28;20420;-78
2022/03/02 06:32:34;;;;;;;17.48;8.43;;;4.20;46.90;;;;;;5049144;28;20485;-79
2022/03/02 06:35:00;;;;;;;10.35;5.32;;;4.60;46.10;;;;;;5049123;28;20147;-77
2022/03/02 06:37:26;;;;;;;19.42;7.05;;;4.90;45.60;;;;;;5047964;28;20037;-78
2022/03/02 06:39:54;;;;;;;12.52;5.63;;;5.30;44.20;;;;;;5049927;28;20025;-77
2022/03/02 06:42:25;;;;;;;14.50;5.65;;;5.60;43.10;;;;;;5047234;28;20033;-77
2022/03/02 06:45:08;;;;;;;15.60;6.93;;;6.00;42.50;;;;;;5046882;28;20055;-78
2022/03/02 06:47:52;;;;;;;12.10;5.80;;;6.10;41.70;;;;;;5048921;28;20296;-79
2022/03/02 06:50:24;;;;;;;11.23;5.57;;;6.40;41.40;;;;;;5047742;28;20027;-77
2022/03/02 06:52:54;;;;;;;13.77;6.47;;;6.90;40.00;;;;;;5045906;28;20524;-79
2022/03/02 06:55:21;;;;;;;15.10;6.78;;;7.00;39.10;;;;;;5045771;28;20040;-80
2022/03/02 06:58:00;;;;;;;15.43;7.25;;;7.50;38.90;;;;;;5045823;28;20247;-81
2022/03/02 07:00:26;;;;;;;13.23;6.82;;;8.10;37.80;;;;;;5045150;28;20063;-80
2022/03/02 07:03:02;;;;;;;14.25;6.55;;;8.50;36.90;;;;;;5046651;28;20087;-79
2022/03/02 07:05:28;;;;;;;13.75;5.38;;;9.10;35.50;;;;;;5047075;28;20025;-78
2022/03/02 07:07:53;;;;;;;12.98;6.15;;;9.40;35.00;;;;;;5046042;28;20024;-79
2022/03/02 07:10:20;;;;;;;10.40;4.88;;;9.70;34.30;;;;;;5046506;28;20028;-80
2022/03/02 07:12:46;;;;;;;8.98;4.20;;;9.80;34.10;;;;;;5044661;28;20147;-78
2022/03/02 07:15:12;;;;;;;8.23;4.57;;;10.30;33.90;;;;;;5046964;28;20033;-79
2022/03/02 07:17:39;;;;;;;9.13;4.47;;;10.20;33.90;;;;;;5044581;28;20029;-80
2022/03/02 07:20:11;;;;;;;11.02;5.43;;;10.30;33.60;;;;;;5045570;28;20029;-79
2022/03/02 07:22:48;;;;;;;21.08;7.45;;;10.40;33.20;;;;;;5046204;28;20029;-77
2022/03/02 07:25:21;;;;;;;16.52;5.93;;;10.60;33.50;;;;;;5045050;28;20028;-78
2022/03/02 07:27:49;;;;;;;12.15;5.57;;;10.70;32.90;;;;;;5046086;28;20091;-79
2022/03/02 07:30:16;;;;;;;12.75;6.47;;;10.90;32.50;;;;;;5044993;28;20140;-79
2022/03/02 07:32:45;;;;;;;7.30;3.78;;;10.80;32.40;;;;;;5045154;28;20600;-79
2022/03/02 07:35:12;;;;;;;7.63;4.00;;;10.60;33.30;;;;;;5046272;28;20454;-80
2022/03/02 07:37:38;;;;;;;9.30;3.95;;;11.00;33.10;;;;;;5044712;28;20029;-79
2022/03/02 07:40:05;;;;;;;6.35;3.30;;;11.40;32.10;;;;;;5045773;28;20024;-80
2022/03/02 07:42:33;;;;;;;5.50;3.08;;;11.70;31.70;;;;;;5044891;28;20401;-78
2022/03/02 07:44:59;;;;;;;7.00;3.00;;;11.60;32.50;;;;;;5044537;28;20287;-78
2022/03/02 07:47:24;;;;;;;;;;;12.00;31.40;;;;;;5046533;28;20067;-79
2022/03/02 07:49:51;;;;;;;11.45;4.93;;;12.30;29.10;;;;;;5045605;28;19909;-80
2022/03/02 07:52:18;;;;;;;9.07;4.57;;;12.20;29.50;;;;;;5046060;28;20040;-79
2022/03/02 07:54:47;;;;;;;9.85;5.78;;;12.50;29.20;;;;;;5045300;28;20070;-79
2022/03/02 07:57:15;;;;;;;9.55;4.20;;;12.90;28.30;;;;;;5044465;28;20037;-80
2022/03/02 07:59:43;;;;;;;12.77;6.60;;;12.60;28.20;;;;;;5044937;28;20405;-78
2022/03/02 08:02:10;;;;;;;13.82;5.90;;;12.10;28.20;;;;;;5046252;28;20063;-78
2022/03/02 08:04:36;;;;;;;11.30;6.55;;;11.50;29.50;;;;;;5044547;28;20060;-77
2022/03/02 08:07:03;;;;;;;8.00;4.65;;;11.20;30.10;;;;;;5044387;28;20271;-78
2022/03/02 08:09:31;;;;;;;11.27;6.05;;;11.20;30.00;;;;;;5046053;28;20125;-78
2022/03/02 08:12:01;;;;;;;9.35;4.93;;;11.00;29.70;;;;;;5046389;28;20041;-79
2022/03/02 08:14:27;;;;;;;14.10;4.55;;;11.10;29.80;;;;;;5050373;28;20017;-79
2022/03/02 08:16:54;;;;;;;15.45;5.95;;;11.10;29.60;;;;;;5049132;28;20405;-80
2022/03/02 08:19:20;;;;;;;12.95;4.63;;;11.40;29.50;;;;;;5048877;28;20041;-79
2022/03/02 08:21:57;;;;;;;11.85;6.55;;;11.90;29.30;;;;;;5049507;28;20526;-79
2022/03/02 08:24:26;;;;;;;9.88;4.45;;;12.50;29.10;;;;;;5049691;28;20032;-79
2022/03/02 08:27:02;;;;;;;11.63;4.13;;;13.00;28.00;;;;;;5048730;28;20504;-78
2022/03/02 08:29:30;;;;;;;12.63;6.60;;;13.00;28.30;;;;;;5049329;28;20552;-79
2022/03/02 08:32:01;;;;;;;7.90;4.32;;;13.20;28.50;;;;;;5049459;28;20091;-77
2022/03/02 08:34:28;;;;;;;9.63;3.97;;;13.40;28.10;;;;;;5049553;28;20024;-79
2022/03/02 08:36:55;;;;;;;8.98;4.35;;;13.60;27.80;;;;;;5049418;28;20028;-78
2022/03/02 08:39:22;;;;;;;8.02;4.10;;;13.80;27.60;;;;;;5047726;28;20087;-78
2022/03/02 08:41:48;;;;;;;9.88;4.10;;;13.40;27.70;;;;;;5049233;28;20056;-79
2022/03/02 08:44:14;;;;;;;;;;;13.20;28.10;;;;;;5048532;28;20060;-80
2022/03/02 08:46:41;;;;;;;10.30;5.00;;;13.00;28.40;;;;;;5047950;28;19908;-77
2022/03/02 08:49:07;;;;;;;8.93;4.40;;;13.00;28.90;;;;;;5048072;28;20417;-79
2022/03/02 08:51:34;;;;;;;;;;;13.20;29.00;;;;;;5049158;28;20024;-79
2022/03/02 08:54:01;;;;;;;;;;;13.50;28.50;;;;;;5049722;28;19908;-77
2022/03/02 08:56:27;;;;;;;9.27;5.00;;;14.00;28.10;;;;;;5047680;28;19908;-77
2022/03/02 08:58:54;;;;;;;10.77;4.43;;;13.90;27.70;;;;;;5047773;28;20029;-78
2022/03/02 09:01:20;;;;;;;11.88;5.60;;;13.90;27.90;;;;;;5049301;28;20102;-79
2022/03/02 09:03:53;;;;;;;10.50;5.40;;;14.00;28.20;;;;;;5049168;28;20021;-77
2022/03/02 09:06:20;;;;;;;9.70;4.57;;;14.40;28.10;;;;;;5047345;28;20033;-77
2022/03/02 09:08:47;;;;;;;11.55;5.95;;;14.70;28.00;;;;;;5048677;28;20025;-78
2022/03/02 09:11:12;;;;;;;10.30;5.03;;;14.90;27.20;;;;;;5047896;28;20076;-78
2022/03/02 09:13:39;;;;;;;9.85;4.93;;;15.10;26.60;;;;;;5048637;28;20040;-79
2022/03/02 09:16:06;;;;;;;13.32;5.72;;;14.40;27.00;;;;;;5049149;28;20480;-78
2022/03/02 09:18:33;;;;;;;8.95;4.55;;;14.00;27.00;;;;;;5048807;28;20040;-79
2022/03/02 09:21:05;;;;;;;8.00;3.78;;;13.50;28.10;;;;;;5048631;28;20079;-78
2022/03/02 09:23:34;;;;;;;15.10;4.85;;;13.70;28.80;;;;;;5048326;28;20025;-79
2022/03/02 09:26:08;;;;;;;11.07;4.05;;;14.00;28.10;;;;;;5048839;28;20452;-78
2022/03/02 09:28:36;;;;;;;9.68;4.50;;;13.80;27.90;;;;;;5048522;28;20025;-78
2022/03/02 09:31:04;;;;;;;10.35;4.18;;;14.00;28.10;;;;;;5047272;28;20190;-78
2022/03/02 09:33:31;;;;;;;10.10;4.30;;;13.70;27.90;;;;;;5048648;28;20040;-78
2022/03/02 09:35:59;;;;;;;7.38;4.18;;;13.90;28.40;;;;;;5047907;28;20112;-78
2022/03/02 09:38:27;;;;;;;6.60;4.20;;;14.40;28.40;;;;;;5048681;28;20509;-78
2022/03/02 09:40:55;;;;;;;15.10;4.38;;;15.10;28.30;;;;;;5048659;28;20796;-78
2022/03/02 09:43:25;;;;;;;11.77;4.53;;;15.80;27.00;;;;;;5048283;28;20044;-79
2022/03/02 09:45:56;;;;;;;10.73;4.28;;;15.90;26.60;;;;;;5048381;28;20444;-79
2022/03/02 09:48:46;;;;;;;9.73;4.55;;;16.20;25.90;;;;;;5046973;28;20029;-78
2022/03/02 09:51:21;;;;;;;12.13;4.53;;;16.40;25.20;;;;;;5047981;28;20028;-79
2022/03/02 09:53:49;;;;;;;8.77;4.00;;;15.90;25.40;;;;;;5047042;28;20425;-79
2022/03/02 09:56:15;;;;;;;9.07;4.65;;;15.60;25.90;;;;;;5047715;28;20025;-79
2022/03/02 09:58:44;;;;;;;8.48;4.50;;;15.30;25.80;;;;;;5048388;28;20057;-78
2022/03/02 10:01:15;;;;;;;10.98;5.18;;;14.50;26.80;;;;;;5046843;28;20409;-78
2022/03/02 10:03:46;;;;;;;7.22;3.92;;;14.60;27.90;;;;;;5046906;28;20098;-78
2022/03/02 10:06:12;;;;;;;8.27;4.10;;;14.90;27.70;;;;;;5048097;28;20113;-79
2022/03/02 10:08:45;;;;;;;8.57;3.88;;;15.50;27.50;;;;;;5048114;28;20056;-79
2022/03/02 10:11:14;;;;;;;11.02;3.95;;;15.90;26.40;;;;;;5046395;28;20063;-79
2022/03/02 10:13:41;;;;;;;7.07;3.53;;;15.90;26.10;;;;;;5046447;28;20444;-78
2022/03/02 10:16:09;;;;;;;9.85;2.92;;;16.00;25.50;;;;;;5047466;28;20056;-78
2022/03/02 10:18:35;;;;;;;6.05;2.80;;;15.70;26.30;;;;;;5046394;28;20120;-79
2022/03/02 10:21:04;;;;;;;7.30;3.47;;;16.20;26.90;;;;;;5047728;28;20112;-79
2022/03/02 10:23:42;;;;;;;12.52;4.30;;;16.20;25.50;;;;;;5047560;28;20521;-79
2022/03/02 10:26:21;;;;;;;5.85;3.08;;;15.60;26.00;;;;;;5047821;28;20040;-78
2022/03/02 10:28:47;;;;;;;9.15;2.85;;;15.50;26.60;;;;;;5047583;28;20017;-79
2022/03/02 10:31:32;;;;;;;9.75;2.97;;;15.90;26.90;;;;;;5047275;28;20398;-79
2022/03/02 10:34:19;;;;;;;5.60;2.70;;;16.20;26.50;;;;;;5045776;28;20045;-78
2022/03/02 10:36:50;;;;;;;6.90;3.22;;;16.40;26.00;;;;;;5046747;28;20079;-79
2022/03/02 10:39:44;;;;;;;8.98;3.60;;;16.00;26.40;;;;;;5047205;28;20025;-79
2022/03/02 10:42:20;;;;;;;6.18;3.15;;;15.30;26.60;;;;;;5043062;28;20076;-78
2022/03/02 10:45:06;;;;;;;5.80;3.20;;;14.60;27.30;;;;;;5047005;28;20552;-78
2022/03/02 10:47:35;;;;;;;6.72;3.80;;;13.60;27.80;;;;;;5039364;28;20567;-79
2022/03/02 10:50:04;;;;;;;9.10;3.20;;;12.70;29.20;;;;;;5047286;28;20031;-81
2022/03/02 10:52:35;;;;;;;4.88;2.88;;;12.10;29.90;;;;;;5046675;28;20033;-78
2022/03/02 10:55:05;;;;;;;6.85;2.72;;;11.70;30.20;;;;;;5045985;28;20476;-78
2022/03/02 10:57:33;;;;;;;6.90;2.92;;;11.20;31.60;;;;;;5046861;28;20025;-80
2022/03/02 11:00:09;;;;;;;6.90;3.05;;;10.70;32.50;;;;;;5045437;28;20025;-79
2022/03/02 11:02:40;;;;;;;5.93;3.33;;;10.40;33.10;;;;;;5046813;28;20902;-78
2022/03/02 11:05:10;;;;;;;15.45;5.82;;;10.10;33.50;;;;;;5046216;28;20033;-78
2022/03/02 11:07:36;;;;;;;19.63;8.45;;;9.80;34.40;;;;;;5047788;28;20025;-78
2022/03/02 11:10:06;;;;;;;44.03;14.85;;;9.60;34.80;;;;;;5047334;28;20040;-78
2022/03/02 11:12:32;;;;;;;9.20;4.00;;;9.40;35.20;;;;;;5049363;28;20403;-76
2022/03/02 11:14:58;;;;;;;;;;;9.40;35.30;;;;;;5047815;28;20032;-78
2022/03/02 11:17:26;;;;;;;5.45;3.00;;;9.20;35.70;;;;;;5047059;28;20400;-77
2022/03/02 11:19:53;;;;;;;7.85;3.55;;;9.00;36.00;;;;;;5047026;28;20567;-77
2022/03/02 11:22:20;;;;;;;8.75;3.95;;;9.00;36.50;;;;;;5047002;28;20494;-78
2022/03/02 11:24:47;;;;;;;8.75;4.95;;;9.10;37.00;;;;;;5045725;28;20028;-76
2022/03/02 11:27:45;;;;;;;6.57;3.08;;;9.10;36.90;;;;;;5046829;28;20584;-77
2022/03/02 11:30:14;;;;;;;6.07;3.15;;;9.30;37.00;;;;;;5023477;28;20045;-78
2022/03/02 11:32:43;;;;;;;5.93;3.17;;;9.30;36.50;;;;;;5047239;28;20290;-77
2022/03/02 11:35:13;;;;;;;5.38;2.80;;;9.40;36.90;;;;;;5045331;28;20104;-78
2022/03/02 11:37:40;;;;;;;7.47;3.67;;;9.50;36.70;;;;;;5046916;28;20025;-78
2022/03/02 11:40:09;;;;;;;6.88;3.20;;;9.70;36.30;;;;;;5045510;28;20059;-77
2022/03/02 11:42:38;;;;;;;5.82;2.85;;;9.80;35.70;;;;;;5047230;28;20021;-77
2022/03/02 11:45:06;;;;;;;8.43;3.10;;;9.70;35.80;;;;;;5045388;28;20128;-77
2022/03/02 11:47:35;;;;;;;5.53;3.03;;;9.60;35.70;;;;;;5045765;28;20037;-77
2022/03/02 11:50:04;;;;;;;7.53;2.40;;;9.30;36.40;;;;;;5046731;28;20033;-77
2022/03/02 11:52:32;;;;;;;6.05;2.80;;;9.30;36.60;;;;;;5044673;28;20493;-77
2022/03/02 11:55:10;;;;;;;6.28;2.70;;;9.20;37.00;;;;;;5046688;28;20044;-76
2022/03/02 11:57:48;;;;;;;8.10;2.60;;;9.10;37.60;;;;;;5045477;28;20099;-78
2022/03/02 12:00:20;;;;;;;6.57;2.95;;;9.10;37.40;;;;;;5046657;28;20127;-78
2022/03/02 12:02:56;;;;;;;6.60;2.95;;;9.20;37.50;;;;;;5046841;28;20088;-78
2022/03/02 12:05:28;;;;;;;5.78;2.85;;;9.40;37.70;;;;;;5046725;28;20122;-77
2022/03/02 12:08:07;;;;;;;7.90;2.92;;;9.60;37.50;;;;;;5046653;28;20058;-77
2022/03/02 12:10:38;;;;;;;8.00;2.95;;;9.70;36.70;;;;;;5044798;28;20073;-77
2022/03/02 12:13:05;;;;;;;8.95;3.20;;;9.70;36.60;;;;;;5041594;28;20410;-77
2022/03/02 12:16:00;;;;;;;6.20;3.20;;;9.50;36.60;;;;;;5043346;28;20033;-77
2022/03/02 12:18:25;;;;;;;7.25;3.25;;;9.50;36.80;;;;;;5031766;28;20370;-77
2022/03/02 12:20:56;;;;;;;15.00;3.30;;;9.30;37.00;;;;;;5042332;28;20033;-76
2022/03/02 12:23:23;;;;;;;10.38;3.10;;;9.40;37.70;;;;;;5044052;28;20052;-77
2022/03/02 12:25:50;;;;;;;8.55;2.95;;;9.50;37.80;;;;;;5038323;28;20120;-76
2022/03/02 12:28:17;;;;;;;5.95;2.85;;;9.70;37.40;;;;;;5042656;28;20121;-77
2022/03/02 12:30:43;;;;;;;6.57;3.22;;;9.80;37.40;;;;;;5044733;28;20061;-77
2022/03/02 12:33:09;;;;;;;;;;;10.10;37.30;;;;;;5044723;28;20076;-76
2022/03/02 12:35:36;;;;;;;7.38;3.50;;;10.20;36.80;;;;;;5042618;28;19951;-77
2022/03/02 12:38:05;;;;;;;7.00;3.17;;;10.30;36.70;;;;;;5044492;28;20124;-77
2022/03/02 12:40:39;;;;;;;5.85;2.60;;;10.40;36.80;;;;;;5042762;28;20547;-77
2022/03/02 12:43:09;;;;;;;6.82;3.10;;;10.40;36.40;;;;;;5045112;28;20036;-77
2022/03/02 12:45:38;;;;;;;5.05;2.80;;;10.50;36.20;;;;;;5044669;28;20068;-77
2022/03/02 12:48:05;;;;;;;7.20;2.60;;;10.60;36.10;;;;;;5042598;28;20128;-77
2022/03/02 12:50:32;;;;;;;7.05;3.25;;;10.70;36.60;;;;;;5044119;28;20083;-76
2022/03/02 12:52:59;;;;;;;6.88;3.78;;;10.60;35.30;;;;;;5044155;28;20128;-76
2022/03/02 12:55:25;;;;;;;7.63;2.80;;;10.70;35.30;;;;;;5044665;28;20379;-77
2022/03/02 12:57:51;;;;;;;7.03;2.75;;;10.60;35.00;;;;;;5045661;28;20040;-77
2022/03/02 13:00:21;;;;;;;5.88;3.17;;;10.60;35.00;;;;;;5048082;28;20033;-77
2022/03/02 13:02:56;;;;;;;8.82;3.33;;;10.70;34.90;;;;;;5044300;28;20072;-77
2022/03/02 13:05:36;;;;;;;8.50;3.20;;;10.80;35.00;;;;;;5040433;28;20795;-77